sensor_id;sensor_type;location;lat;lon;timestamp;temperature;humidity
57753;DHT22;43583;53.132;6.574;2023-06-04T00:00:54;10.30;99.90
57753;DHT22;43583;53.132;6.574;2023-06-04T00:03:19;10.30;99.90
57753;DHT22;43583;53.132;6.574;2023-06-04T00:05:45;10.30;99.90
57753;DHT22;43583;53.132;6.574;2023-06-04T00:08:10;10.20;99.90
57753;DHT22;43583;53.132;6.574;2023-06-04T00:10:36;10.20;99.90
57753;DHT22;43583;53.132;6.574;2023-06-04T00:13:05;10.10;99.90
57753;DHT22;43583;53.132;6.574;2023-06-04T00:15:30;10.10;99.90
57753;DHT22;43583;53.132;6.574;2023-06-04T00:17:56;10.00;99.90
57753;DHT22;43583;53.132;6.574;2023-06-04T00:20:22;10.00;99.90
57753;DHT22;43583;53.132;6.574;2023-06-04T00:22:47;10.00;99.90
57753;DHT22;43583;53.132;6.574;2023-06-04T00:25:13;10.00;99.90
57753;DHT22;43583;53.132;6.574;2023-06-04T00:27:38;9.90;99.90
57753;DHT22;43583;53.132;6.574;2023-06-04T00:30:04;9.90;99.90
57753;DHT22;43583;53.132;6.574;2023-06-04T00:32:30;9.90;99.90
57753;DHT22;43583;53.132;6.574;2023-06-04T00:34:56;9.80;99.90
57753;DHT22;43583;53.132;6.574;2023-06-04T00:37:25;9.80;99.90
57753;DHT22;43583;53.132;6.574;2023-06-04T00:39:51;9.80;99.90
57753;DHT22;43583;53.132;6.574;2023-06-04T00:42:17;9.80;99.90
57753;DHT22;43583;53.132;6.574;2023-06-04T00:44:43;9.70;99.90
57753;DHT22;43583;53.132;6.574;2023-06-04T00:47:14;9.70;99.90
57753;DHT22;43583;53.132;6.574;2023-06-04T00:49:41;9.70;99.90
57753;DHT22;43583;53.132;6.574;2023-06-04T00:52:08;9.60;99.90
57753;DHT22;43583;53.132;6.574;2023-06-04T00:54:35;9.60;99.90
57753;DHT22;43583;53.132;6.574;2023-06-04T00:57:01;9.50;99.90
57753;DHT22;43583;53.132;6.574;2023-06-04T00:59:27;9.50;99.90
57753;DHT22;43583;53.132;6.574;2023-06-04T01:02:09;9.40;99.90
57753;DHT22;43583;53.132;6.574;2023-06-04T01:04:44;9.30;99.90
57753;DHT22;43583;53.132;6.574;2023-06-04T01:07:12;9.30;99.90
57753;DHT22;43583;53.132;6.574;2023-06-04T01:09:38;9.30;99.90
57753;DHT22;43583;53.132;6.574;2023-06-04T01:12:08;9.30;99.90
57753;DHT22;43583;53.132;6.574;2023-06-04T01:14:33;9.40;99.90
57753;DHT22;43583;53.132;6.574;2023-06-04T01:17:16;9.40;99.90
57753;DHT22;43583;53.132;6.574;2023-06-04T01:25:22;9.50;99.90
57753;DHT22;43583;53.132;6.574;2023-06-04T01:27:52;9.50;99.90
57753;DHT22;43583;53.132;6.574;2023-06-04T01:30:28;9.60;99.90
57753;DHT22;43583;53.132;6.574;2023-06-04T01:32:55;9.60;99.90
57753;DHT22;43583;53.132;6.574;2023-06-04T01:35:22;9.70;99.90
57753;DHT22;43583;53.132;6.574;2023-06-04T01:37:48;9.70;99.90
57753;DHT22;43583;53.132;6.574;2023-06-04T01:40:14;9.70;99.90
57753;DHT22;43583;53.132;6.574;2023-06-04T01:42:41;9.70;99.90
57753;DHT22;43583;53.132;6.574;2023-06-04T01:45:07;9.60;99.90
57753;DHT22;43583;53.132;6.574;2023-06-04T01:47:33;9.60;99.90
57753;DHT22;43583;53.132;6.574;2023-06-04T01:50:04;9.70;99.90
57753;DHT22;43583;53.132;6.574;2023-06-04T01:52:30;9.60;99.90
57753;DHT22;43583;53.132;6.574;2023-06-04T01:54:56;9.60;99.90
57753;DHT22;43583;53.132;6.574;2023-06-04T01:57:22;9.60;99.90
57753;DHT22;43583;53.132;6.574;2023-06-04T01:59:48;9.50;99.90
57753;DHT22;43583;53.132;6.574;2023-06-04T02:02:14;9.40;99.90
57753;DHT22;43583;53.132;6.574;2023-06-04T02:04:40;9.40;99.90
57753;DHT22;43583;53.132;6.574;2023-06-04T02:07:09;9.30;99.90
57753;DHT22;43583;53.132;6.574;2023-06-04T02:09:36;9.20;99.90
57753;DHT22;43583;53.132;6.574;2023-06-04T02:12:02;9.20;99.90
57753;DHT22;43583;53.132;6.574;2023-06-04T02:14:27;9.10;99.90
57753;DHT22;43583;53.132;6.574;2023-06-04T02:16:53;9.00;99.90
57753;DHT22;43583;53.132;6.574;2023-06-04T02:19:19;8.90;99.90
57753;DHT22;43583;53.132;6.574;2023-06-04T02:21:46;8.80;99.90
57753;DHT22;43583;53.132;6.574;2023-06-04T02:24:12;8.80;99.90
57753;DHT22;43583;53.132;6.574;2023-06-04T02:26:38;8.70;99.90
57753;DHT22;43583;53.132;6.574;2023-06-04T02:29:03;8.60;99.90
57753;DHT22;43583;53.132;6.574;2023-06-04T02:31:29;8.60;99.90
57753;DHT22;43583;53.132;6.574;2023-06-04T02:33:56;8.50;99.90
57753;DHT22;43583;53.132;6.574;2023-06-04T02:36:21;8.50;99.90
57753;DHT22;43583;53.132;6.574;2023-06-04T02:38:47;8.40;99.90
57753;DHT22;43583;53.132;6.574;2023-06-04T02:41:12;8.40;99.90
57753;DHT22;43583;53.132;6.574;2023-06-04T02:43:38;8.30;99.90
57753;DHT22;43583;53.132;6.574;2023-06-04T02:46:04;8.30;99.90
57753;DHT22;43583;53.132;6.574;2023-06-04T02:48:29;8.20;99.90
57753;DHT22;43583;53.132;6.574;2023-06-04T02:50:55;8.10;99.90
57753;DHT22;43583;53.132;6.574;2023-06-04T02:53:20;8.10;99.90
57753;DHT22;43583;53.132;6.574;2023-06-04T02:55:47;8.00;99.90
57753;DHT22;43583;53.132;6.574;2023-06-04T02:58:12;8.00;99.90
57753;DHT22;43583;53.132;6.574;2023-06-04T03:00:39;7.90;99.90
57753;DHT22;43583;53.132;6.574;2023-06-04T03:03:05;7.90;99.90
57753;DHT22;43583;53.132;6.574;2023-06-04T03:05:31;7.90;99.90
57753;DHT22;43583;53.132;6.574;2023-06-04T03:07:58;7.90;99.90
57753;DHT22;43583;53.132;6.574;2023-06-04T03:10:24;7.90;99.90
57753;DHT22;43583;53.132;6.574;2023-06-04T03:12:50;7.90;99.90
57753;DHT22;43583;53.132;6.574;2023-06-04T03:15:16;7.90;99.90
57753;DHT22;43583;53.132;6.574;2023-06-04T03:17:42;7.90;99.90
57753;DHT22;43583;53.132;6.574;2023-06-04T03:20:08;7.90;99.90
57753;DHT22;43583;53.132;6.574;2023-06-04T03:22:34;7.90;99.90
57753;DHT22;43583;53.132;6.574;2023-06-04T03:25:01;7.90;99.90
57753;DHT22;43583;53.132;6.574;2023-06-04T03:27:27;7.90;99.90
57753;DHT22;43583;53.132;6.574;2023-06-04T03:29:52;7.90;99.90
57753;DHT22;43583;53.132;6.574;2023-06-04T03:32:18;8.00;99.90
57753;DHT22;43583;53.132;6.574;2023-06-04T03:34:44;8.00;99.90
57753;DHT22;43583;53.132;6.574;2023-06-04T03:37:09;8.00;99.90
57753;DHT22;43583;53.132;6.574;2023-06-04T03:39:35;8.10;99.90
57753;DHT22;43583;53.132;6.574;2023-06-04T03:42:01;8.10;99.90
57753;DHT22;43583;53.132;6.574;2023-06-04T03:44:26;8.10;99.90
57753;DHT22;43583;53.132;6.574;2023-06-04T03:46:52;8.10;99.90
57753;DHT22;43583;53.132;6.574;2023-06-04T03:49:17;8.20;99.90
57753;DHT22;43583;53.132;6.574;2023-06-04T03:51:43;8.30;99.90
57753;DHT22;43583;53.132;6.574;2023-06-04T03:54:09;8.60;99.90
57753;DHT22;43583;53.132;6.574;2023-06-04T03:56:35;8.70;99.90
57753;DHT22;43583;53.132;6.574;2023-06-04T03:59:01;8.80;99.90
57753;DHT22;43583;53.132;6.574;2023-06-04T04:01:27;8.90;99.90
57753;DHT22;43583;53.132;6.574;2023-06-04T04:03:53;9.10;99.90
57753;DHT22;43583;53.132;6.574;2023-06-04T04:06:19;9.20;99.90
57753;DHT22;43583;53.132;6.574;2023-06-04T04:08:45;9.40;99.90
57753;DHT22;43583;53.132;6.574;2023-06-04T04:11:12;9.80;99.90
57753;DHT22;43583;53.132;6.574;2023-06-04T04:13:38;10.40;99.90
57753;DHT22;43583;53.132;6.574;2023-06-04T04:16:04;10.80;99.90
57753;DHT22;43583;53.132;6.574;2023-06-04T04:18:33;10.90;99.90
57753;DHT22;43583;53.132;6.574;2023-06-04T04:20:59;11.00;99.90
57753;DHT22;43583;53.132;6.574;2023-06-04T04:23:25;11.20;99.90
57753;DHT22;43583;53.132;6.574;2023-06-04T04:25:52;11.60;99.90
57753;DHT22;43583;53.132;6.574;2023-06-04T04:28:19;12.10;99.90
57753;DHT22;43583;53.132;6.574;2023-06-04T04:30:45;12.70;99.90
57753;DHT22;43583;53.132;6.574;2023-06-04T04:33:12;13.00;99.90
57753;DHT22;43583;53.132;6.574;2023-06-04T04:35:44;13.10;99.90
57753;DHT22;43583;53.132;6.574;2023-06-04T04:38:10;13.10;99.90
57753;DHT22;43583;53.132;6.574;2023-06-04T04:40:36;13.10;99.90
57753;DHT22;43583;53.132;6.574;2023-06-04T04:43:02;13.10;99.90
57753;DHT22;43583;53.132;6.574;2023-06-04T04:45:27;13.30;99.90
57753;DHT22;43583;53.132;6.574;2023-06-04T04:47:53;13.80;99.90
57753;DHT22;43583;53.132;6.574;2023-06-04T04:50:18;14.30;99.90
57753;DHT22;43583;53.132;6.574;2023-06-04T04:52:44;14.80;99.90
57753;DHT22;43583;53.132;6.574;2023-06-04T04:55:10;15.40;99.90
57753;DHT22;43583;53.132;6.574;2023-06-04T04:57:37;15.80;99.90
57753;DHT22;43583;53.132;6.574;2023-06-04T05:00:03;16.30;99.90
57753;DHT22;43583;53.132;6.574;2023-06-04T05:02:35;16.70;99.90
57753;DHT22;43583;53.132;6.574;2023-06-04T05:05:01;17.00;99.90
57753;DHT22;43583;53.132;6.574;2023-06-04T05:07:26;17.40;99.90
57753;DHT22;43583;53.132;6.574;2023-06-04T05:09:52;17.70;99.90
57753;DHT22;43583;53.132;6.574;2023-06-04T05:12:17;17.90;99.90
57753;DHT22;43583;53.132;6.574;2023-06-04T05:14:44;18.10;99.90
57753;DHT22;43583;53.132;6.574;2023-06-04T05:17:10;18.30;99.90
57753;DHT22;43583;53.132;6.574;2023-06-04T05:19:36;18.40;99.90
57753;DHT22;43583;53.132;6.574;2023-06-04T05:22:03;18.40;99.90
57753;DHT22;43583;53.132;6.574;2023-06-04T05:24:28;18.70;99.90
57753;DHT22;43583;53.132;6.574;2023-06-04T05:26:55;18.70;99.90
57753;DHT22;43583;53.132;6.574;2023-06-04T05:29:22;18.70;99.90
57753;DHT22;43583;53.132;6.574;2023-06-04T05:31:48;19.00;99.90
57753;DHT22;43583;53.132;6.574;2023-06-04T05:34:13;19.30;99.90
57753;DHT22;43583;53.132;6.574;2023-06-04T05:36:42;19.70;99.90
57753;DHT22;43583;53.132;6.574;2023-06-04T05:39:08;19.90;99.90
57753;DHT22;43583;53.132;6.574;2023-06-04T05:41:34;20.10;99.90
57753;DHT22;43583;53.132;6.574;2023-06-04T05:44:01;20.50;99.90
57753;DHT22;43583;53.132;6.574;2023-06-04T05:46:27;20.10;99.90
57753;DHT22;43583;53.132;6.574;2023-06-04T05:48:52;20.40;99.90
57753;DHT22;43583;53.132;6.574;2023-06-04T05:51:19;20.60;99.90
57753;DHT22;43583;53.132;6.574;2023-06-04T05:53:45;20.70;99.90
57753;DHT22;43583;53.132;6.574;2023-06-04T05:56:11;20.60;99.90
57753;DHT22;43583;53.132;6.574;2023-06-04T05:58:37;20.70;99.90
57753;DHT22;43583;53.132;6.574;2023-06-04T06:01:03;20.70;99.90
57753;DHT22;43583;53.132;6.574;2023-06-04T06:03:28;20.90;99.90
57753;DHT22;43583;53.132;6.574;2023-06-04T06:05:54;20.90;99.90
57753;DHT22;43583;53.132;6.574;2023-06-04T06:08:21;21.00;99.90
57753;DHT22;43583;53.132;6.574;2023-06-04T06:10:46;21.10;99.90
57753;DHT22;43583;53.132;6.574;2023-06-04T06:13:12;21.00;99.90
57753;DHT22;43583;53.132;6.574;2023-06-04T06:15:38;21.20;99.90
57753;DHT22;43583;53.132;6.574;2023-06-04T06:18:04;21.10;99.90
57753;DHT22;43583;53.132;6.574;2023-06-04T06:20:30;21.20;99.90
57753;DHT22;43583;53.132;6.574;2023-06-04T06:22:55;21.00;99.90
57753;DHT22;43583;53.132;6.574;2023-06-04T06:25:21;20.70;99.90
57753;DHT22;43583;53.132;6.574;2023-06-04T06:27:46;20.70;99.90
57753;DHT22;43583;53.132;6.574;2023-06-04T06:30:13;20.80;99.90
57753;DHT22;43583;53.132;6.574;2023-06-04T06:32:39;20.90;99.90
57753;DHT22;43583;53.132;6.574;2023-06-04T06:35:05;21.20;99.90
57753;DHT22;43583;53.132;6.574;2023-06-04T06:37:33;21.30;99.90
57753;DHT22;43583;53.132;6.574;2023-06-04T06:39:58;21.20;99.90
57753;DHT22;43583;53.132;6.574;2023-06-04T06:42:24;21.50;99.90
57753;DHT22;43583;53.132;6.574;2023-06-04T06:44:50;22.00;99.90
57753;DHT22;43583;53.132;6.574;2023-06-04T06:47:16;22.50;99.50
57753;DHT22;43583;53.132;6.574;2023-06-04T06:49:42;22.80;98.70
57753;DHT22;43583;53.132;6.574;2023-06-04T06:52:08;22.90;97.80
57753;DHT22;43583;53.132;6.574;2023-06-04T06:54:33;22.90;96.80
57753;DHT22;43583;53.132;6.574;2023-06-04T06:56:59;22.60;96.00
57753;DHT22;43583;53.132;6.574;2023-06-04T06:59:25;22.60;95.80
57753;DHT22;43583;53.132;6.574;2023-06-04T07:01:51;22.90;95.60
57753;DHT22;43583;53.132;6.574;2023-06-04T07:04:16;22.80;93.30
57753;DHT22;43583;53.132;6.574;2023-06-04T07:06:43;22.60;93.20
57753;DHT22;43583;53.132;6.574;2023-06-04T07:09:08;22.00;92.60
57753;DHT22;43583;53.132;6.574;2023-06-04T07:11:35;22.20;92.40
57753;DHT22;43583;53.132;6.574;2023-06-04T07:14:00;22.10;92.30
57753;DHT22;43583;53.132;6.574;2023-06-04T07:16:28;21.90;92.20
57753;DHT22;43583;53.132;6.574;2023-06-04T07:18:54;21.90;92.20
57753;DHT22;43583;53.132;6.574;2023-06-04T07:21:19;22.20;91.60
57753;DHT22;43583;53.132;6.574;2023-06-04T07:23:47;22.20;90.70
57753;DHT22;43583;53.132;6.574;2023-06-04T07:26:15;22.30;89.40
57753;DHT22;43583;53.132;6.574;2023-06-04T07:28:41;22.30;87.90
57753;DHT22;43583;53.132;6.574;2023-06-04T07:31:07;22.70;88.00
57753;DHT22;43583;53.132;6.574;2023-06-04T07:33:32;22.70;86.80
57753;DHT22;43583;53.132;6.574;2023-06-04T07:35:58;22.70;83.40
57753;DHT22;43583;53.132;6.574;2023-06-04T07:38:24;22.50;83.30
57753;DHT22;43583;53.132;6.574;2023-06-04T07:40:50;22.80;80.50
57753;DHT22;43583;53.132;6.574;2023-06-04T07:43:16;22.90;79.90
57753;DHT22;43583;53.132;6.574;2023-06-04T07:45:41;23.10;79.80
57753;DHT22;43583;53.132;6.574;2023-06-04T07:48:09;23.50;79.10
57753;DHT22;43583;53.132;6.574;2023-06-04T07:50:36;23.80;76.80
57753;DHT22;43583;53.132;6.574;2023-06-04T07:53:01;24.10;74.10
57753;DHT22;43583;53.132;6.574;2023-06-04T07:55:27;24.00;73.50
57753;DHT22;43583;53.132;6.574;2023-06-04T07:57:52;24.10;72.40
57753;DHT22;43583;53.132;6.574;2023-06-04T08:00:18;23.90;71.30
57753;DHT22;43583;53.132;6.574;2023-06-04T08:02:45;23.80;72.40
57753;DHT22;43583;53.132;6.574;2023-06-04T08:05:10;23.70;73.40
57753;DHT22;43583;53.132;6.574;2023-06-04T08:07:39;23.80;71.80
57753;DHT22;43583;53.132;6.574;2023-06-04T08:10:05;24.10;70.30
57753;DHT22;43583;53.132;6.574;2023-06-04T08:12:31;24.10;68.70
57753;DHT22;43583;53.132;6.574;2023-06-04T08:14:57;23.90;67.00
57753;DHT22;43583;53.132;6.574;2023-06-04T08:17:23;23.50;66.10
57753;DHT22;43583;53.132;6.574;2023-06-04T08:19:49;23.60;66.30
57753;DHT22;43583;53.132;6.574;2023-06-04T08:22:15;23.80;66.70
57753;DHT22;43583;53.132;6.574;2023-06-04T08:24:40;23.80;68.50
57753;DHT22;43583;53.132;6.574;2023-06-04T08:27:06;23.50;67.80
57753;DHT22;43583;53.132;6.574;2023-06-04T08:29:34;23.30;67.80
57753;DHT22;43583;53.132;6.574;2023-06-04T08:32:01;23.30;68.90
57753;DHT22;43583;53.132;6.574;2023-06-04T08:34:27;23.30;70.00
57753;DHT22;43583;53.132;6.574;2023-06-04T08:36:53;23.70;70.00
57753;DHT22;43583;53.132;6.574;2023-06-04T08:39:19;24.10;69.50
57753;DHT22;43583;53.132;6.574;2023-06-04T08:41:49;24.30;68.40
57753;DHT22;43583;53.132;6.574;2023-06-04T08:44:19;24.20;68.50
57753;DHT22;43583;53.132;6.574;2023-06-04T08:46:45;24.30;70.90
57753;DHT22;43583;53.132;6.574;2023-06-04T08:49:13;24.20;68.70
57753;DHT22;43583;53.132;6.574;2023-06-04T08:51:39;23.80;69.40
57753;DHT22;43583;53.132;6.574;2023-06-04T08:54:06;23.80;69.50
57753;DHT22;43583;53.132;6.574;2023-06-04T08:56:36;24.20;70.10
57753;DHT22;43583;53.132;6.574;2023-06-04T08:59:06;24.10;68.90
57753;DHT22;43583;53.132;6.574;2023-06-04T09:01:33;23.90;68.70
57753;DHT22;43583;53.132;6.574;2023-06-04T09:04:03;23.90;68.90
57753;DHT22;43583;53.132;6.574;2023-06-04T09:06:29;23.80;67.40
57753;DHT22;43583;53.132;6.574;2023-06-04T09:08:56;23.70;68.10
57753;DHT22;43583;53.132;6.574;2023-06-04T09:11:27;23.40;67.80
57753;DHT22;43583;53.132;6.574;2023-06-04T09:13:59;23.20;67.50
57753;DHT22;43583;53.132;6.574;2023-06-04T09:16:26;22.80;68.60
57753;DHT22;43583;53.132;6.574;2023-06-04T09:18:52;22.80;69.10
57753;DHT22;43583;53.132;6.574;2023-06-04T09:21:18;22.90;69.10
57753;DHT22;43583;53.132;6.574;2023-06-04T09:23:46;22.80;68.70
57753;DHT22;43583;53.132;6.574;2023-06-04T09:26:12;22.60;68.40
57753;DHT22;43583;53.132;6.574;2023-06-04T09:28:42;22.70;69.40
57753;DHT22;43583;53.132;6.574;2023-06-04T09:31:15;22.30;68.10
57753;DHT22;43583;53.132;6.574;2023-06-04T09:33:49;21.80;69.90
57753;DHT22;43583;53.132;6.574;2023-06-04T09:36:16;21.70;72.60
57753;DHT22;43583;53.132;6.574;2023-06-04T09:38:43;21.90;73.00
57753;DHT22;43583;53.132;6.574;2023-06-04T09:41:16;21.70;72.10
57753;DHT22;43583;53.132;6.574;2023-06-04T09:43:42;21.80;72.80
57753;DHT22;43583;53.132;6.574;2023-06-04T09:46:16;21.40;72.80
57753;DHT22;43583;53.132;6.574;2023-06-04T09:48:44;21.40;73.60
57753;DHT22;43583;53.132;6.574;2023-06-04T09:51:14;21.40;74.80
57753;DHT22;43583;53.132;6.574;2023-06-04T09:53:54;21.40;74.60
57753;DHT22;43583;53.132;6.574;2023-06-04T09:56:20;21.40;74.80
57753;DHT22;43583;53.132;6.574;2023-06-04T09:58:53;21.10;74.60
57753;DHT22;43583;53.132;6.574;2023-06-04T10:01:19;21.10;75.00
57753;DHT22;43583;53.132;6.574;2023-06-04T10:03:47;21.00;74.10
57753;DHT22;43583;53.132;6.574;2023-06-04T10:06:15;21.00;76.20
57753;DHT22;43583;53.132;6.574;2023-06-04T10:08:42;21.20;76.60
57753;DHT22;43583;53.132;6.574;2023-06-04T10:11:09;21.10;74.10
57753;DHT22;43583;53.132;6.574;2023-06-04T10:13:43;20.80;74.10
57753;DHT22;43583;53.132;6.574;2023-06-04T10:16:11;21.10;77.30
57753;DHT22;43583;53.132;6.574;2023-06-04T10:18:37;21.10;75.90
57753;DHT22;43583;53.132;6.574;2023-06-04T10:21:03;21.00;75.60
57753;DHT22;43583;53.132;6.574;2023-06-04T10:23:29;20.70;74.50
57753;DHT22;43583;53.132;6.574;2023-06-04T10:25:55;20.70;77.40
57753;DHT22;43583;53.132;6.574;2023-06-04T10:28:22;20.90;75.90
57753;DHT22;43583;53.132;6.574;2023-06-04T10:30:49;20.80;77.00
57753;DHT22;43583;53.132;6.574;2023-06-04T10:33:20;20.90;74.70
57753;DHT22;43583;53.132;6.574;2023-06-04T10:35:46;20.90;74.20
57753;DHT22;43583;53.132;6.574;2023-06-04T10:38:13;20.90;73.10
57753;DHT22;43583;53.132;6.574;2023-06-04T10:40:40;21.10;74.10
57753;DHT22;43583;53.132;6.574;2023-06-04T10:43:13;21.20;74.50
57753;DHT22;43583;53.132;6.574;2023-06-04T10:45:40;21.00;72.70
57753;DHT22;43583;53.132;6.574;2023-06-04T10:48:07;21.00;72.40
57753;DHT22;43583;53.132;6.574;2023-06-04T10:50:34;21.10;72.80
57753;DHT22;43583;53.132;6.574;2023-06-04T10:53:00;21.20;73.80
57753;DHT22;43583;53.132;6.574;2023-06-04T10:55:29;21.10;75.10
57753;DHT22;43583;53.132;6.574;2023-06-04T10:57:57;21.20;76.90
57753;DHT22;43583;53.132;6.574;2023-06-04T11:00:37;21.30;76.90
57753;DHT22;43583;53.132;6.574;2023-06-04T11:03:05;21.60;79.10
57753;DHT22;43583;53.132;6.574;2023-06-04T11:05:40;21.50;77.00
57753;DHT22;43583;53.132;6.574;2023-06-04T11:08:06;21.60;78.80
57753;DHT22;43583;53.132;6.574;2023-06-04T11:10:34;21.40;80.80
57753;DHT22;43583;53.132;6.574;2023-06-04T11:13:01;21.30;77.90
57753;DHT22;43583;53.132;6.574;2023-06-04T11:15:27;21.30;77.90
57753;DHT22;43583;53.132;6.574;2023-06-04T11:18:02;21.40;78.10
57753;DHT22;43583;53.132;6.574;2023-06-04T11:20:27;21.40;79.70
57753;DHT22;43583;53.132;6.574;2023-06-04T11:22:54;21.20;79.00
57753;DHT22;43583;53.132;6.574;2023-06-04T11:25:22;21.20;80.30
57753;DHT22;43583;53.132;6.574;2023-06-04T11:27:49;20.90;81.20
57753;DHT22;43583;53.132;6.574;2023-06-04T11:30:16;21.00;82.00
57753;DHT22;43583;53.132;6.574;2023-06-04T11:32:41;20.90;82.00
57753;DHT22;43583;53.132;6.574;2023-06-04T11:35:07;20.80;82.90
57753;DHT22;43583;53.132;6.574;2023-06-04T11:37:34;20.90;84.00
57753;DHT22;43583;53.132;6.574;2023-06-04T11:40:00;21.10;82.80
57753;DHT22;43583;53.132;6.574;2023-06-04T11:42:29;21.00;84.30
57753;DHT22;43583;53.132;6.574;2023-06-04T11:44:58;20.90;82.10
57753;DHT22;43583;53.132;6.574;2023-06-04T11:47:24;21.10;85.20
57753;DHT22;43583;53.132;6.574;2023-06-04T11:49:54;21.00;84.50
57753;DHT22;43583;53.132;6.574;2023-06-04T11:52:21;20.90;83.10
57753;DHT22;43583;53.132;6.574;2023-06-04T11:54:47;20.80;84.90
57753;DHT22;43583;53.132;6.574;2023-06-04T11:57:13;20.90;85.80
57753;DHT22;43583;53.132;6.574;2023-06-04T11:59:38;20.90;87.60
57753;DHT22;43583;53.132;6.574;2023-06-04T12:02:06;20.80;87.20
57753;DHT22;43583;53.132;6.574;2023-06-04T12:04:32;20.90;87.80
57753;DHT22;43583;53.132;6.574;2023-06-04T12:07:00;20.90;86.70
57753;DHT22;43583;53.132;6.574;2023-06-04T12:09:33;20.80;85.90
57753;DHT22;43583;53.132;6.574;2023-06-04T12:12:06;20.70;86.60
57753;DHT22;43583;53.132;6.574;2023-06-04T12:14:32;20.70;88.90
57753;DHT22;43583;53.132;6.574;2023-06-04T12:17:06;20.70;90.10
57753;DHT22;43583;53.132;6.574;2023-06-04T12:19:32;20.80;89.80
57753;DHT22;43583;53.132;6.574;2023-06-04T12:22:04;21.00;88.50
57753;DHT22;43583;53.132;6.574;2023-06-04T12:24:47;21.10;90.00
57753;DHT22;43583;53.132;6.574;2023-06-04T12:27:13;21.00;88.50
57753;DHT22;43583;53.132;6.574;2023-06-04T12:29:38;21.00;90.00
57753;DHT22;43583;53.132;6.574;2023-06-04T12:32:06;21.10;89.70
57753;DHT22;43583;53.132;6.574;2023-06-04T12:34:39;21.00;89.60
57753;DHT22;43583;53.132;6.574;2023-06-04T12:37:05;21.00;90.00
57753;DHT22;43583;53.132;6.574;2023-06-04T12:39:35;20.90;88.80
57753;DHT22;43583;53.132;6.574;2023-06-04T12:42:05;21.00;90.30
57753;DHT22;43583;53.132;6.574;2023-06-04T12:44:32;21.20;90.40
57753;DHT22;43583;53.132;6.574;2023-06-04T12:46:57;21.10;90.40
57753;DHT22;43583;53.132;6.574;2023-06-04T12:49:23;21.20;90.00
57753;DHT22;43583;53.132;6.574;2023-06-04T12:51:48;21.20;88.50
57753;DHT22;43583;53.132;6.574;2023-06-04T12:54:14;21.00;88.80
57753;DHT22;43583;53.132;6.574;2023-06-04T12:56:40;20.90;90.10
57753;DHT22;43583;53.132;6.574;2023-06-04T12:59:06;20.80;90.30
57753;DHT22;43583;53.132;6.574;2023-06-04T13:01:32;20.90;90.40
57753;DHT22;43583;53.132;6.574;2023-06-04T13:03:57;21.00;90.90
57753;DHT22;43583;53.132;6.574;2023-06-04T13:06:23;21.10;91.40
57753;DHT22;43583;53.132;6.574;2023-06-04T13:08:49;21.20;90.60
57753;DHT22;43583;53.132;6.574;2023-06-04T13:11:14;21.00;88.70
57753;DHT22;43583;53.132;6.574;2023-06-04T13:13:41;21.20;90.00
57753;DHT22;43583;53.132;6.574;2023-06-04T13:16:07;21.00;90.80
57753;DHT22;43583;53.132;6.574;2023-06-04T13:18:33;20.80;90.20
57753;DHT22;43583;53.132;6.574;2023-06-04T13:20:58;21.00;91.00
57753;DHT22;43583;53.132;6.574;2023-06-04T13:23:24;20.90;89.70
57753;DHT22;43583;53.132;6.574;2023-06-04T13:25:49;20.90;90.40
57753;DHT22;43583;53.132;6.574;2023-06-04T13:28:16;20.70;90.60
57753;DHT22;43583;53.132;6.574;2023-06-04T13:30:43;20.60;91.00
57753;DHT22;43583;53.132;6.574;2023-06-04T13:33:08;20.60;90.70
57753;DHT22;43583;53.132;6.574;2023-06-04T13:35:34;20.60;91.30
57753;DHT22;43583;53.132;6.574;2023-06-04T13:38:00;20.60;91.30
57753;DHT22;43583;53.132;6.574;2023-06-04T13:40:25;20.60;91.70
57753;DHT22;43583;53.132;6.574;2023-06-04T13:42:51;20.60;91.70
57753;DHT22;43583;53.132;6.574;2023-06-04T13:45:17;20.70;92.30
57753;DHT22;43583;53.132;6.574;2023-06-04T13:47:46;20.60;91.10
57753;DHT22;43583;53.132;6.574;2023-06-04T13:50:12;20.50;91.30
57753;DHT22;43583;53.132;6.574;2023-06-04T13:52:37;20.40;91.50
57753;DHT22;43583;53.132;6.574;2023-06-04T13:55:03;20.20;91.90
57753;DHT22;43583;53.132;6.574;2023-06-04T13:57:28;20.30;92.70
57753;DHT22;43583;53.132;6.574;2023-06-04T13:59:54;20.30;92.60
57753;DHT22;43583;53.132;6.574;2023-06-04T14:02:20;20.30;92.20
57753;DHT22;43583;53.132;6.574;2023-06-04T14:04:46;20.30;92.20
57753;DHT22;43583;53.132;6.574;2023-06-04T14:07:12;20.40;93.60
57753;DHT22;43583;53.132;6.574;2023-06-04T14:09:37;20.40;92.80
57753;DHT22;43583;53.132;6.574;2023-06-04T14:12:03;20.30;93.10
57753;DHT22;43583;53.132;6.574;2023-06-04T14:14:29;20.20;92.90
57753;DHT22;43583;53.132;6.574;2023-06-04T14:17:02;20.20;92.60
57753;DHT22;43583;53.132;6.574;2023-06-04T14:19:27;20.30;93.10
57753;DHT22;43583;53.132;6.574;2023-06-04T14:21:53;20.20;93.40
57753;DHT22;43583;53.132;6.574;2023-06-04T14:24:18;20.30;93.60
57753;DHT22;43583;53.132;6.574;2023-06-04T14:26:44;20.10;93.50
57753;DHT22;43583;53.132;6.574;2023-06-04T14:29:11;20.00;93.80
57753;DHT22;43583;53.132;6.574;2023-06-04T14:31:36;19.70;94.10
57753;DHT22;43583;53.132;6.574;2023-06-04T14:34:02;19.70;94.20
57753;DHT22;43583;53.132;6.574;2023-06-04T14:36:28;19.60;94.20
57753;DHT22;43583;53.132;6.574;2023-06-04T14:38:53;19.60;94.60
57753;DHT22;43583;53.132;6.574;2023-06-04T14:41:19;19.50;94.60
57753;DHT22;43583;53.132;6.574;2023-06-04T14:43:44;19.40;95.20
57753;DHT22;43583;53.132;6.574;2023-06-04T14:46:10;19.40;94.60
57753;DHT22;43583;53.132;6.574;2023-06-04T14:48:36;19.30;94.80
57753;DHT22;43583;53.132;6.574;2023-06-04T14:51:01;19.30;95.10
57753;DHT22;43583;53.132;6.574;2023-06-04T14:53:27;19.30;95.90
57753;DHT22;43583;53.132;6.574;2023-06-04T14:55:52;19.20;95.10
57753;DHT22;43583;53.132;6.574;2023-06-04T14:58:18;19.20;95.40
57753;DHT22;43583;53.132;6.574;2023-06-04T15:00:44;19.20;95.50
57753;DHT22;43583;53.132;6.574;2023-06-04T15:03:10;19.20;95.60
57753;DHT22;43583;53.132;6.574;2023-06-04T15:05:36;19.10;95.40
57753;DHT22;43583;53.132;6.574;2023-06-04T15:08:02;18.90;95.30
57753;DHT22;43583;53.132;6.574;2023-06-04T15:10:28;18.90;95.50
57753;DHT22;43583;53.132;6.574;2023-06-04T15:12:54;18.90;95.90
57753;DHT22;43583;53.132;6.574;2023-06-04T15:15:20;18.70;95.20
57753;DHT22;43583;53.132;6.574;2023-06-04T15:17:45;18.70;95.80
57753;DHT22;43583;53.132;6.574;2023-06-04T15:20:11;18.60;95.80
57753;DHT22;43583;53.132;6.574;2023-06-04T15:22:37;18.60;96.30
57753;DHT22;43583;53.132;6.574;2023-06-04T15:25:02;18.70;96.30
57753;DHT22;43583;53.132;6.574;2023-06-04T15:27:28;18.60;96.90
57753;DHT22;43583;53.132;6.574;2023-06-04T15:29:53;18.60;96.80
57753;DHT22;43583;53.132;6.574;2023-06-04T15:32:19;18.50;96.60
57753;DHT22;43583;53.132;6.574;2023-06-04T15:34:45;18.50;97.10
57753;DHT22;43583;53.132;6.574;2023-06-04T15:37:11;18.50;97.60